Latest Weather Observations for Roebourne Airport

IDW60801

Issued at 11:02 pm WST Saturday 13 February 2016 (issued every 30 minutes, with the page automatically refreshed every 10 minutes)

About weather observations | Map of weather stations | Latest weather observations for WA | Other Formats
Station Details ID: 004090 Name: ROEBOURNE AERO Lat: -20.76 Lon: 117.16 Height: 10.7 m
Data from the previous 72 hours. | See also: Recent months at Roebourne Airport
Date/Time
WST
Temp
°C
App
Temp
°C
Dew
Point
Rel
Hum
%
Delta-T
°C
Wind Press
QNH
hPa
Press
MSL
hPa
Rain
since 9 am
mm
Dir
 
Spd
km/h
Gust
km/h
Spd
kts
Gust
kts
13/11:00pm 28.9 31.9 25.3 81 2.5 W 19 24 10 13 1008.3 1008.3 0.0
13/10:30pm 29.0 32.7 25.2 80 2.7 W 15 20 8 11 1008.8 1008.8 0.0
13/10:00pm 29.3 32.7 25.3 79 2.8 WNW 17 20 9 11 1009.0 1009.0 0.0
13/09:30pm 29.5 32.9 25.3 78 3.0 WNW 17 20 9 11 1009.0 1009.0 0.0
13/09:00pm 29.8 33.1 25.1 76 3.3 WNW 17 20 9 11 1008.9 1008.9 0.0
13/08:30pm 29.9 32.7 25.0 75 3.4 WNW 19 26 10 14 1008.6 1008.6 0.0
13/08:00pm 30.0 32.3 25.1 75 3.5 W 22 28 12 15 1008.1 1008.1 0.0
13/07:30pm 30.5 32.2 24.6 70 4.1 W 24 30 13 16 1007.5 1007.4 0.0
13/07:00pm 30.9 33.4 25.3 72 4.0 WNW 22 28 12 15 1007.1 1007.0 0.0
13/06:30pm 31.7 33.0 24.6 66 5.0 WNW 26 32 14 17 1006.9 1006.8 0.0
13/06:00pm 32.5 34.1 25.1 65 5.2 WNW 26 33 14 18 1006.6 1006.5 0.0
13/05:30pm 33.3 34.4 25.0 61 5.9 NW 28 35 15 19 1006.4 1006.3 0.0
13/05:00pm 34.8 35.9 25.0 56 7.0 NW 28 35 15 19 1006.2 1006.1 0.0
13/04:30pm 34.5 36.0 25.6 60 6.4 NW 28 39 15 21 1006.2 1006.1 0.0
13/04:00pm 34.9 35.3 24.5 54 7.4 NW 30 41 16 22 1006.2 1006.1 0.0
13/03:30pm 34.8 34.8 24.7 55 7.1 NW 33 43 18 23 1006.3 1006.2 0.0
13/03:00pm 35.8 36.0 25.0 53 7.7 NNW 33 43 18 23 1006.2 1006.1 0.0
13/02:30pm 35.8 37.1 25.3 54 7.5 NNW 28 41 15 22 1006.7 1006.6 0.0
13/02:00pm 36.6 37.2 23.4 46 9.2 NNW 26 35 14 19 1006.9 1006.8 0.0
13/01:30pm 38.0 38.5 22.0 39 11.0 NNW 22 35 12 19 1006.9 1006.8 0.0
13/01:00pm 37.7 39.1 24.8 47 9.2 NNW 26 37 14 20 1006.9 1006.8 0.0
13/12:30pm 37.4 37.6 23.4 44 9.8 NNW 28 39 15 21 1007.3 1007.2 0.0
13/12:00pm 38.6 39.7 21.3 36 11.9 NW 17 26 9 14 1007.5 1007.4 0.0
13/11:30am 37.8 39.6 21.9 40 10.9 NW 15 26 8 14 1007.7 1007.6 0.0
13/11:00am 36.9 40.5 23.7 46 9.3 NNW 11 22 6 12 1008.1 1008.1 0.0
13/10:30am 35.2 38.5 25.1 56 7.2 NW 17 24 9 13 1008.3 1008.3 0.0
13/10:00am 34.3 37.4 25.7 61 6.2 NNW 20 26 11 14 1008.2 1008.2 0.0
13/09:30am 35.0 38.9 26.1 60 6.4 N 17 28 9 15 1008.4 1008.4 0.0
13/09:00am 34.8 38.8 24.4 54 7.3 NNW 11 20 6 11 1008.7 1008.7 0.0
13/08:30am 33.4 37.8 25.1 61 5.9 N 11 17 6 9 1009.0 1009.0 0.0
13/08:00am 31.3 36.0 25.6 71 4.1 W 11 13 6 7 1008.3 1008.3 0.0
13/07:30am 29.6 35.1 26.2 82 2.4 WSW 9 11 5 6 1008.3 1008.3 0.0
13/07:00am 28.5 34.4 25.9 86 1.8 SW 6 9 3 5 1007.9 1007.9 0.0
13/06:30am 27.5 32.3 25.7 90 1.3 W 11 17 6 9 1007.6 1007.5 0.0
13/06:00am 26.4 30.5 24.6 90 1.3 WNW 11 13 6 7 1007.3 1007.2 0.0
13/05:30am 26.8 32.4 24.8 89 1.4 W 4 9 2 5 1007.1 1007.0 0.0
13/05:00am 27.4 31.9 25.2 88 1.5 W 11 15 6 8 1006.7 1006.6 0.0
13/04:30am 28.1 32.0 25.5 86 1.8 W 15 17 8 9 1006.7 1006.6 0.0
13/04:00am 28.2 32.4 25.4 85 2.0 W 13 17 7 9 1006.8 1006.7 0.0
13/03:30am 28.5 32.8 25.5 84 2.1 W 13 15 7 8 1006.8 1006.7 0.0
13/03:00am 29.1 33.4 25.5 81 2.5 WSW 13 17 7 9 1006.9 1006.8 0.0
13/02:30am 29.3 32.5 25.5 80 2.7 W 19 24 10 13 1006.7 1006.6 0.0
13/02:00am 29.2 32.5 24.5 76 3.3 W 15 20 8 11 1006.8 1006.7 0.0
13/01:30am 28.3 32.4 23.2 74 3.5 WSW 7 11 4 6 1007.0 1006.9 0.0
13/01:00am 28.8 32.9 23.2 71 3.8 NW 7 9 4 5 1007.5 1007.4 0.0
13/12:30am 29.4 33.0 23.8 72 3.9 NNW 11 17 6 9 1007.6 1007.5 0.0
13/12:00am 29.0 32.9 23.0 70 4.1 NE 7 17 4 9 1007.7 1007.6 0.0
 
Date/Time
WST
Temp
°C
App
Temp
°C
Dew
Point
Rel
Hum
%
Delta-T
°C
Wind Press
QNH
hPa
Press
MSL
hPa
Rain
since 9 am
mm
Dir
 
Spd
km/h
Gust
km/h
Spd
kts
Gust
kts
12/11:30pm 30.6 33.2 22.7 62 5.4 W 13 19 7 10 1007.7 1007.6 0.0
12/11:00pm 31.1 33.8 21.3 56 6.6 WSW 9 13 5 7 1007.9 1007.9 0.0
12/10:30pm 31.7 32.2 21.2 53 7.1 WSW 20 32 11 17 1007.8 1007.7 0.0
12/10:00pm 32.1 33.7 22.2 56 6.8 W 17 22 9 12 1007.6 1007.5 0.0
12/09:30pm 32.6 34.9 22.7 56 6.8 WSW 15 22 8 12 1007.5 1007.4 0.0
12/09:00pm 33.5 34.4 19.2 43 9.4 WSW 13 19 7 10 1007.2 1007.1 0.0
12/08:30pm 33.7 36.1 21.5 49 8.3 W 11 15 6 8 1007.0 1006.9 0.0
12/08:00pm 34.6 35.0 17.3 35 11.1 W 11 15 6 8 1006.6 1006.5 0.0
12/07:30pm 35.3 35.3 18.0 36 11.2 WNW 15 20 8 11 1006.1 1006.0 0.0
12/07:00pm 36.3 35.4 15.9 29 13.0 WNW 15 20 8 11 1005.9 1005.8 0.0
12/06:30pm 37.3 36.2 17.3 30 13.0 WNW 19 22 10 12 1005.6 1005.5 0.0
12/06:00pm 38.3 36.7 16.6 28 14.0 WNW 20 28 11 15 1005.2 1005.1 0.0
12/05:30pm 39.5 36.1 12.4 20 16.5 NW 22 30 12 16 1004.9 1004.8 0.0
12/05:00pm 39.4 36.3 14.4 22 15.7 NNW 24 32 13 17 1004.8 1004.7 0.0
12/04:30pm 40.3 36.0 10.6 17 17.7 NNW 24 32 13 17 1004.5 1004.4 0.0
12/04:00pm 42.3 36.4 9.2 14 19.6 N 30 37 16 20 1004.4 1004.3 0.0
12/03:30pm 43.4 37.9 9.0 13 20.3 N 28 35 15 19 1004.4 1004.3 0.0
12/03:00pm 43.6 37.1 6.7 11 21.2 N 30 37 16 20 1004.7 1004.6 0.0
12/02:30pm 44.1 38.0 8.3 12 21.0 N 30 35 16 19 1005.0 1004.9 0.0
12/02:00pm 44.6 38.0 6.1 10 22.0 NNE 30 43 16 23 1005.3 1005.2 0.0
12/01:30pm 45.2 38.4 5.0 9 22.6 NNE 30 37 16 20 1005.5 1005.4 0.0
12/01:00pm 44.9 39.5 6.3 10 22.1 NNE 24 32 13 17 1005.8 1005.7 0.0
12/12:30pm 45.7 39.3 5.4 9 22.8 NNE 28 35 15 19 1006.1 1006.0 0.0
12/12:00pm 45.1 39.8 4.9 9 22.6 NE 22 33 12 18 1006.6 1006.5 0.0
12/11:30am 45.1 39.8 4.9 9 22.6 ENE 22 33 12 18 1006.8 1006.7 0.0
12/11:00am 44.4 39.0 4.4 9 22.3 ENE 22 32 12 17 1007.2 1007.1 0.0
12/10:30am 44.1 39.0 4.2 9 22.1 ENE 20 32 11 17 1007.6 1007.5 0.0
12/10:00am 44.1 38.9 5.7 10 21.7 E 22 30 12 16 1008.0 1008.0 0.0
12/09:30am 42.8 37.1 4.7 10 21.1 ESE 24 32 13 17 1008.1 1008.1 0.0
12/09:00am 42.5 37.7 4.5 10 21.0 SE 19 28 10 15 1008.2 1008.2 0.0
12/08:30am 38.9 38.6 8.5 16 17.5 CALM 0 6 0 3 1008.3 1008.3 0.0
12/08:00am 36.6 35.7 9.2 19 15.8 SE 4 6 2 3 1008.3 1008.3 0.0
12/07:30am 34.2 33.5 11.4 25 13.4 SE 6 7 3 4 1008.2 1008.2 0.0
12/07:26am 34.1 34.1 11.3 25 13.4 SSE 2 7 1 4 1008.1 1008.1 0.0
12/07:00am 29.1 29.8 12.1 35 9.9 CALM 0 0 0 0 1008.0 1008.0 0.0
12/06:30am 25.7 26.1 11.1 40 8.2 CALM 0 0 0 0 1007.8 1007.7 0.0
12/06:00am 24.9 24.5 11.1 42 7.8 NNW 4 6 2 3 1007.6 1007.5 0.0
12/05:30am 25.1 25.4 10.9 41 8.0 CALM 0 0 0 0 1007.4 1007.3 0.0
12/05:00am 27.9 26.7 9.7 32 10.2 SW 6 7 3 4 1007.2 1007.1 0.0
12/04:30am 27.1 24.3 9.9 34 9.6 SW 15 17 8 9 1007.1 1007.0 0.0
12/04:00am 27.3 24.9 10.1 34 9.6 SW 13 15 7 8 1006.9 1006.8 0.0
12/03:30am 27.6 25.9 9.9 33 9.9 SW 9 13 5 7 1006.8 1006.7 0.0
12/03:00am 27.9 26.3 10.1 33 10.0 SW 9 11 5 6 1006.7 1006.6 0.0
12/02:30am 28.8 26.2 9.5 30 10.8 SW 13 15 7 8 1006.8 1006.7 0.0
12/02:00am 29.8 28.5 9.9 29 11.2 W 7 9 4 5 1007.0 1006.9 0.0
12/01:30am 30.1 27.7 10.1 29 11.3 SW 13 17 7 9 1007.2 1007.1 0.0
12/01:00am 31.1 28.7 9.9 27 12.1 SW 13 17 7 9 1007.4 1007.3 0.0
12/12:30am 29.6 28.4 12.9 35 9.9 SW 11 13 6 7 1007.7 1007.6 0.0
12/12:00am 28.9 28.8 13.2 38 9.3 W 6 9 3 5 1008.0 1008.0 0.0
 
Date/Time
WST
Temp
°C
App
Temp
°C
Dew
Point
Rel
Hum
%
Delta-T
°C
Wind Press
QNH
hPa
Press
MSL
hPa
Rain
since 9 am
mm
Dir
 
Spd
km/h
Gust
km/h
Spd
kts
Gust
kts
11/11:30pm 28.8 28.5 12.7 37 9.5 W 6 6 3 3 1008.2 1008.2 0.0
11/11:00pm 29.2 28.9 12.6 36 9.8 WSW 6 7 3 4 1008.3 1008.3 0.0
11/10:30pm 29.4 28.5 11.5 33 10.3 SSW 7 9 4 5 1008.4 1008.4 0.0
11/10:00pm 31.0 31.2 11.9 31 11.2 WSW 2 6 1 3 1008.3 1008.3 0.0
11/09:30pm 32.5 32.8 12.2 29 12.0 W 2 6 1 3 1008.2 1008.2 0.0
11/09:00pm 33.5 32.6 11.4 26 13.0 W 7 11 4 6 1008.0 1008.0 0.0
11/08:30pm 35.0 33.5 12.0 25 13.7 W 11 13 6 7 1007.6 1007.5 0.0
11/08:00pm 35.6 34.1 13.1 25 13.7 W 13 15 7 8 1007.3 1007.2 0.0
11/07:30pm 36.5 35.7 15.0 27 13.5 W 13 15 7 8 1007.0 1006.9 0.0
11/07:00pm 37.8 36.1 12.4 22 15.4 WNW 13 17 7 9 1006.6 1006.5 0.0
11/06:30pm 38.9 36.6 14.0 23 15.5 WNW 19 26 10 14 1006.2 1006.1 0.0
11/06:00pm 40.5 36.3 9.8 16 18.2 NW 22 26 12 14 1005.8 1005.7 0.0
11/05:30pm 42.3 37.3 8.1 13 19.8 N 24 28 13 15 1005.2 1005.1 0.0
11/05:00pm 43.0 37.5 7.5 12 20.5 N 26 32 14 17 1004.9 1004.8 0.0
11/04:30pm 43.8 37.2 4.0 9 21.9 N 28 32 15 17 1004.6 1004.5 0.0
11/04:00pm 44.4 37.1 4.4 9 22.3 NNE 32 35 17 19 1004.8 1004.7 0.0
11/03:30pm 45.2 39.1 5.0 9 22.6 NNE 26 32 14 17 1004.8 1004.7 0.0
11/03:00pm 45.3 39.3 3.4 8 23.1 NNE 24 32 13 17 1005.0 1004.9 0.0
11/02:30pm 46.1 41.2 4.0 8 23.5 NNE 19 26 10 14 1005.3 1005.2 0.0
11/02:00pm 45.1 40.0 3.2 8 23.0 NNE 19 26 10 14 1005.7 1005.6 0.0
11/01:30pm 44.8 39.5 3.0 8 22.8 N 20 28 11 15 1006.0 1005.9 0.0
11/01:00pm 45.5 40.2 5.2 9 22.8 NNE 22 30 12 16 1006.4 1006.3 0.0
11/12:30pm 44.7 38.9 4.6 9 22.4 NE 24 32 13 17 1006.7 1006.6 0.0
11/12:00pm 45.3 40.0 6.6 10 22.3 ENE 24 35 13 19 1007.0 1006.9 0.0
11/11:30am 45.3 38.6 3.4 8 23.1 E 28 41 15 22 1007.3 1007.2 0.0
11/11:00am 44.7 40.2 6.1 10 22.0 ENE 19 35 10 19 1007.5 1007.4 0.0
11/10:30am 44.0 40.6 4.1 9 22.0 ESE 11 19 6 10 1007.8 1007.7 0.0
11/10:00am 43.4 40.1 6.5 11 21.1 SE 13 19 7 10 1008.1 1008.1 0.0
11/09:30am 42.4 40.6 9.3 14 19.5 SSE 9 15 5 8 1008.5 1008.5 0.0
11/09:00am 39.5 39.0 10.8 18 17.1 SE 4 9 2 5 1008.8 1008.8 0.0
11/08:30am 36.9 37.3 12.4 23 14.8 N 2 6 1 3 1008.9 1008.9 0.0
11/08:00am 34.1 33.6 11.9 26 13.2 N 6 7 3 4 1008.9 1008.9 0.0
11/07:30am 31.4 31.6 13.2 33 10.9 N 4 6 2 3 1008.8 1008.8 0.0
11/07:00am 28.6 29.2 15.2 44 8.2 ENE 6 7 3 4 1008.6 1008.6 0.0
11/06:30am 25.0 26.6 14.8 53 6.1 CALM 0 0 0 0 1008.3 1008.3 0.0
11/06:00am 25.1 26.3 13.9 49 6.6 CALM 0 0 0 0 1008.0 1008.0 0.0
11/05:30am 24.4 24.8 14.8 55 5.7 ESE 6 9 3 5 1007.7 1007.6 0.0
11/05:00am 24.5 24.8 14.6 54 5.9 ENE 6 19 3 10 1007.6 1007.5 0.0
11/04:30am 25.4 26.9 15.7 55 5.9 ENE 2 7 1 4 1007.4 1007.3 0.0
11/04:00am 24.9 26.0 15.5 56 5.7 E 4 9 2 5 1007.3 1007.2 0.0
11/03:30am 25.7 27.2 15.7 54 6.1 ENE 2 7 1 4 1007.1 1007.0 0.0
11/03:00am 26.8 26.2 14.5 46 7.4 SW 11 11 6 6 1006.9 1006.8 0.0
11/02:30am 28.1 28.2 15.4 46 7.8 WSW 9 11 5 6 1006.9 1006.8 0.0
11/02:00am 28.3 28.7 16.2 47 7.5 SW 9 11 5 6 1006.8 1006.7 0.0
11/01:30am 28.5 29.3 16.4 48 7.5 SW 7 9 4 5 1006.9 1006.8 0.0
11/01:00am 29.0 30.3 17.2 49 7.4 SW 6 7 3 4 1007.1 1007.0 0.0
11/12:30am 29.1 29.7 17.6 50 7.3 SW 11 11 6 6 1007.4 1007.3 0.0
11/12:00am 28.7 29.6 17.6 51 7.0 SW 9 11 5 6 1007.8 1007.7 0.0
 
Date/Time
WST
Temp
°C
App
Temp
°C
Dew
Point
Rel
Hum
%
Delta-T
°C
Wind Press
QNH
hPa
Press
MSL
hPa
Rain
since 9 am
mm
Dir
 
Spd
km/h
Gust
km/h
Spd
kts
Gust
kts
10/11:30pm 29.2 30.2 16.4 46 8.0 SW 6 9 3 5 1008.0 1008.0 0.0

Other Formats:

Comma delimited format used in spreadsheet applications
http://www.bom.gov.au/fwo/IDW60801/IDW60801.94308.axf

JavaScript Object Notation format (JSON) in row-major order
http://www.bom.gov.au/fwo/IDW60801/IDW60801.94308.json